createdAt,value
2019-04-21T00:00:45.647Z,97518.44
2019-04-21T00:05:57.156Z,97511.22
2019-04-21T00:10:59.370Z,97507.26
2019-04-21T00:15:42.293Z,97505.25
2019-04-21T00:20:39.625Z,97503.52
2019-04-21T00:25:45.827Z,97500.05
2019-04-21T00:30:50.495Z,97498.49
2019-04-21T00:35:29.393Z,97496.44
2019-04-21T00:40:52.107Z,97495.64
2019-04-21T00:45:33.912Z,97488.05
2019-04-21T00:51:01.689Z,97488.59
2019-04-21T01:00:46.517Z,97485.22
2019-04-21T01:05:52.752Z,97478.85
2019-04-21T01:10:40.942Z,97466.44
2019-04-21T01:16:56.068Z,97465.44
2019-04-21T01:21:21.787Z,97460.11
2019-04-21T01:26:31.087Z,97463.00
2019-04-21T01:31:34.982Z,97454.57
2019-04-21T01:36:32.883Z,97452.23
2019-04-21T01:41:31.765Z,97443.80
2019-04-21T01:46:25.616Z,97444.20
2019-04-21T01:51:22.259Z,97444.95
2019-04-21T01:56:51.351Z,97448.55
2019-04-21T02:01:48.481Z,97448.60
2019-04-21T02:06:54.356Z,97437.28
2019-04-21T02:11:52.007Z,97425.78
2019-04-21T02:16:40.443Z,97429.00
2019-04-21T02:21:36.878Z,97420.49
2019-04-21T02:26:41.599Z,97423.19
2019-04-21T02:32:07.943Z,97418.22
2019-04-21T02:41:51.219Z,97408.28
2019-04-21T02:46:38.439Z,97403.13
2019-04-21T02:56:34.482Z,97404.83
2019-04-21T03:02:04.123Z,97401.98
2019-04-21T03:12:24.618Z,97385.73
2019-04-21T03:17:17.865Z,97378.24
2019-04-21T03:22:12.226Z,97374.69
2019-04-21T03:27:28.818Z,97376.14
2019-04-21T03:37:13.609Z,97369.92
2019-04-21T03:47:04.405Z,97372.00
2019-04-21T03:51:59.330Z,97372.07
2019-04-21T04:02:18.526Z,97358.37
2019-04-21T04:12:26.334Z,97355.87
2019-04-21T04:37:26.240Z,97346.52
2019-04-21T04:47:56.527Z,97324.19
2019-04-21T04:52:48.523Z,97336.19
2019-04-21T04:58:59.533Z,97330.11
2019-04-21T05:07:46.515Z,97326.14
2019-04-21T05:12:38.821Z,97324.00
2019-04-21T05:22:28.008Z,97321.38
2019-04-21T05:27:51.664Z,97320.23
2019-04-21T05:33:12.446Z,97330.55
2019-04-21T05:38:12.822Z,97334.66
2019-04-21T05:43:10.858Z,97334.69
2019-04-21T05:48:37.709Z,97330.28
2019-04-21T05:58:30.108Z,97330.19
2019-04-21T06:03:30.700Z,97328.36
2019-04-21T06:08:28.621Z,97331.98
2019-04-21T06:13:26.820Z,97324.60
2019-04-21T06:18:22.339Z,97318.75
2019-04-21T06:23:20.283Z,97325.01
2019-04-21T06:28:22.622Z,97318.39
2019-04-21T06:33:08.091Z,97312.31
2019-04-21T06:38:19.403Z,97313.89
2019-04-21T06:43:20.952Z,97307.21
2019-04-21T06:48:10.974Z,97299.45
2019-04-21T06:53:12.036Z,97301.38
2019-04-21T06:57:58.875Z,97295.02
2019-04-21T07:03:11.406Z,97290.33
2019-04-21T07:08:07.624Z,97289.63
2019-04-21T07:12:51.026Z,97285.28
2019-04-21T07:17:53.635Z,97288.27
2019-04-21T07:22:50.885Z,97279.58
2019-04-21T07:27:47.813Z,97280.13
2019-04-21T07:32:51.555Z,97279.36
2019-04-21T07:37:41.543Z,97278.88
2019-04-21T07:42:32.870Z,97270.73
2019-04-21T07:47:39.522Z,97264.65
2019-04-21T07:52:55.367Z,97266.75
2019-04-21T07:57:39.536Z,97264.83
2019-04-21T08:12:36.323Z,97263.42
2019-04-21T08:17:35.861Z,97256.28
2019-04-21T08:22:32.087Z,97251.52
2019-04-21T08:27:37.066Z,97254.02
2019-04-21T08:32:36.438Z,97254.52
2019-04-21T08:37:26.126Z,97249.06
2019-04-21T08:42:25.708Z,97243.72
2019-04-21T08:47:25.964Z,97242.59
2019-04-21T08:52:36.778Z,97249.92
2019-04-21T08:57:30.134Z,97235.89
2019-04-21T09:28:36.737Z,97212.41
2019-04-21T09:33:18.612Z,97209.05
2019-04-21T09:38:26.486Z,97204.45
2019-04-21T09:43:13.808Z,97199.83
2019-04-21T09:48:13.870Z,97188.85
2019-04-21T09:53:16.979Z,97186.17
2019-04-21T09:59:32.109Z,97180.48
2019-04-21T10:04:24.829Z,97174.03
2019-04-21T10:09:22.223Z,97169.33
2019-04-21T10:14:18.197Z,97162.61
2019-04-21T10:19:15.010Z,97157.83
2019-04-21T10:24:12.400Z,97150.69
2019-04-21T10:29:16.337Z,97138.44
2019-04-21T10:34:05.746Z,97135.09
2019-04-21T10:39:02.332Z,97119.50
2019-04-21T10:43:59.054Z,97113.22
2019-04-21T10:48:56.883Z,97106.59
2019-04-21T10:53:59.852Z,97100.17
2019-04-21T10:58:56.436Z,97094.17
2019-04-21T11:04:17.266Z,97087.17
2019-04-21T11:09:11.851Z,97080.58
2019-04-21T11:14:10.599Z,97079.11
2019-04-21T11:19:07.907Z,97088.78
2019-04-21T11:24:03.954Z,97077.83
2019-04-21T11:29:01.111Z,97072.88
2019-04-21T11:34:36.701Z,97070.25
2019-04-21T11:40:07.411Z,97064.59
2019-04-21T11:45:04.109Z,97066.66
2019-04-21T11:50:33.248Z,97062.59
2019-04-21T11:55:34.307Z,97056.81
2019-04-21T12:00:30.018Z,97053.16
2019-04-21T12:05:25.833Z,97049.34
2019-04-21T12:10:21.749Z,97047.78
2019-04-21T12:15:18.835Z,97045.36
2019-04-21T12:20:15.065Z,97031.19
2019-04-21T12:25:13.585Z,97034.47
2019-04-21T12:30:13.568Z,97025.16
2019-04-21T12:35:12.176Z,97017.27
2019-04-21T12:40:10.524Z,97017.22
2019-04-21T12:45:07.581Z,97018.62
2019-04-21T12:50:04.588Z,97010.93
2019-04-21T12:55:01.762Z,97007.16
2019-04-21T12:59:57.667Z,97005.05
2019-04-21T13:04:55.782Z,96990.75
2019-04-21T13:09:52.616Z,96989.36
2019-04-21T13:14:49.668Z,96973.55
2019-04-21T13:19:47.294Z,96969.33
2019-04-21T13:24:44.125Z,96969.69
2019-04-21T13:29:40.058Z,96956.75
2019-04-21T13:34:36.054Z,96947.59
2019-04-21T13:40:13.171Z,96947.50
2019-04-21T13:44:46.633Z,96936.00
2019-04-21T13:49:45.360Z,96924.94
2019-04-21T13:54:41.275Z,96923.38
2019-04-21T13:59:38.438Z,96918.47
2019-04-21T14:04:35.630Z,96912.94
2019-04-21T14:09:46.787Z,96906.23
2019-04-21T14:14:36.551Z,96901.75
2019-04-21T14:19:33.207Z,96893.19
2019-04-21T14:24:29.126Z,96884.69
2019-04-21T14:29:25.748Z,96883.82
2019-04-21T14:34:21.997Z,96879.72
2019-04-21T14:39:18.568Z,96876.05
2019-04-21T14:44:15.597Z,96865.30
2019-04-21T14:49:19.468Z,96866.75
2019-04-21T14:54:24.716Z,96850.81
2019-04-21T14:59:21.359Z,96849.77
2019-04-21T15:04:19.008Z,96841.14
2019-04-21T15:09:15.448Z,96835.63
2019-04-21T15:14:11.666Z,96836.59
2019-04-21T15:19:08.627Z,96830.96
2019-04-21T15:24:04.740Z,96833.20
2019-04-21T15:29:00.440Z,96823.91
2019-04-21T15:33:57.101Z,96821.42
2019-04-21T15:38:54.070Z,96819.46
2019-04-21T15:43:51.030Z,96815.97
2019-04-21T15:48:46.820Z,96815.80
2019-04-21T15:53:43.858Z,96804.17
2019-04-21T15:59:14.721Z,96806.98
2019-04-21T16:04:10.861Z,96801.36
2019-04-21T16:09:16.148Z,96796.50
2019-04-21T16:14:08.202Z,96789.74
2019-04-21T16:19:04.040Z,96784.72
2019-04-21T16:24:00.517Z,96782.89
2019-04-21T16:28:57.417Z,96771.44
2019-04-21T16:33:54.642Z,96768.25
2019-04-21T16:38:51.458Z,96763.48
2019-04-21T16:43:47.387Z,96758.20
2019-04-21T16:48:44.141Z,96750.75
2019-04-21T16:54:01.976Z,96747.02
2019-04-21T16:59:16.657Z,96744.99
2019-04-21T17:04:12.821Z,96745.36
2019-04-21T17:09:10.618Z,96738.98
2019-04-21T17:14:24.717Z,96733.22
2019-04-21T17:19:14.511Z,96734.83
2019-04-21T17:24:04.369Z,96728.45
2019-04-21T17:29:00.676Z,96727.00
2019-04-21T17:34:02.140Z,96726.65
2019-04-21T17:38:54.302Z,96721.45
2019-04-21T17:43:52.597Z,96719.97
2019-04-21T17:48:49.309Z,96723.28
2019-04-21T17:53:58.686Z,96722.75
2019-04-21T17:59:17.686Z,96715.48
2019-04-21T18:04:24.308Z,96720.78
2019-04-21T18:09:15.360Z,96724.30
2019-04-21T18:13:47.184Z,96724.97
2019-04-21T18:18:44.242Z,96725.59
2019-04-21T18:23:52.859Z,96722.25
2019-04-21T18:28:44.375Z,96722.02
2019-04-21T18:33:46.188Z,96720.67
2019-04-21T18:39:34.249Z,96727.41
2019-04-21T18:45:22.214Z,96730.45
2019-04-21T18:49:42.686Z,96741.48
2019-04-21T18:54:52.564Z,96748.63
2019-04-21T18:59:39.392Z,96748.80
2019-04-21T19:04:33.866Z,96748.75
2019-04-21T19:24:41.117Z,96739.93
2019-04-21T19:29:31.946Z,96745.23
2019-04-21T19:34:23.783Z,96742.42
2019-04-21T19:39:32.730Z,96748.81
2019-04-21T19:44:26.238Z,96742.50
2019-04-21T19:49:32.366Z,96749.73
2019-04-21T19:54:18.704Z,96749.83
2019-04-21T19:59:06.995Z,96743.83
2019-04-21T20:04:04.538Z,96741.22
2019-04-21T20:09:19.433Z,96740.18
2019-04-21T20:14:44.839Z,96733.48
2019-04-21T20:19:02.958Z,96730.19
2019-04-21T20:24:06.090Z,96731.82
2019-04-21T20:29:05.478Z,96719.62
2019-04-21T20:34:16.065Z,96719.67
2019-04-21T20:38:57.948Z,96719.55
2019-04-21T20:44:06.187Z,96716.73
2019-04-21T20:49:00.185Z,96717.25
2019-04-21T20:53:53.819Z,96709.40
2019-04-21T20:58:55.678Z,96704.75
2019-04-21T21:03:51.772Z,96702.90
2019-04-21T21:08:49.825Z,96695.20
2019-04-21T21:13:53.712Z,96688.68
2019-04-21T21:23:51.298Z,96687.76
2019-04-21T21:28:40.254Z,96677.13
2019-04-21T21:33:50.872Z,96671.83
2019-04-21T21:38:39.283Z,96669.30
2019-04-21T21:43:23.084Z,96663.27
2019-04-21T21:48:31.854Z,96662.28
2019-04-21T21:53:17.432Z,96659.73
2019-04-21T21:58:12.365Z,96654.47
2019-04-21T22:03:17.836Z,96648.83
2019-04-21T22:08:06.826Z,96648.28
2019-04-21T22:13:08.861Z,96649.76
2019-04-21T22:18:19.504Z,96647.36
2019-04-21T22:23:06.397Z,96641.27
2019-04-21T22:27:55.691Z,96638.34
2019-04-21T22:32:59.854Z,96637.67
2019-04-21T22:38:02.065Z,96634.33
2019-04-21T22:43:00.613Z,96641.70
2019-04-21T22:47:46.523Z,96645.12
2019-04-21T22:52:43.593Z,96644.16
2019-04-21T22:57:46.009Z,96645.89
2019-04-21T23:02:41.063Z,96640.98
2019-04-21T23:07:48.477Z,96642.96
2019-04-21T23:12:40.783Z,96638.73
2019-04-21T23:17:54.296Z,96642.59
2019-04-21T23:23:00.934Z,96634.36
2019-04-21T23:27:52.586Z,96631.59
2019-04-21T23:32:39.150Z,96628.44
2019-04-21T23:37:27.398Z,96618.73
2019-04-21T23:42:31.146Z,96612.71
2019-04-21T23:47:36.912Z,96613.74
2019-04-21T23:52:19.772Z,96613.66
2019-04-21T23:57:26.226Z,96606.52
